Teslin Airport
CYZW : now visible

Airfield :











YOU CAN JOIN US ON...

 
LOGIN :

Register | Disclaimer

   EN    FR    IT 

 









Legend :    VFR   Marginal VFR   IFR   Intensive IFR   Very Intensive IFR
Visi :
Ceiling :
>= 8 km
>= 3000ft
5 to 8 km
1000 to 3000 ft
1500m to 5 km
500 to 1000 ft
800 to 1500m
200 to 500 ft
< 800m
< 200 ft
Symbols :   Thunderstorms  Fog  Heavy snow  Heavy precipitations  Wind > 20 kt






- Airport Elevation : 2313 ft
- IATA code : YZW


CYZW - Teslin

CURRENT METAR :
  • 082100Z 07008KT 15SM FEW003 FEW050 SCT080 OVC230 M13/M15 A2993 RMK SC1SC1AC5CI2 SC TR SLP196

EXPIRED METARs :
  • 082000Z 08008KT 20SM FEW003 FEW050 SCT090 OVC220 M14/M16 A2991 RMK ST1SC2AC4CI1 SLP190
  • 081900Z 07007KT 15SM FEW003 SCT018 BKN150 OVC220 M14/M16 A2989 RMK ST1SC4AC2CC1 SLP184

TAF TAF CYZW
Valid from the 08 at 19:00 until the 09 at 01:00 UTC


081841Z 0819/0901 07007KT P6SM FEW010 SCT080 BKN150
TEMPO 0819/0901 SCT010 BKN080 RMK NXT FCST WILL BE ISSUED AT 091845Z



MET'MAP, your aeronautical weather chart ! - Copyright ORBIFLY December 2007 - Disclaimer

ORBIFLY MET'MAP TEAM :

Programming & Development : Alexandra Zaïnal
Concept & original design : Baudouin d'Aumeries
Assistance for programming : Marc-Olivier Méhu
Technical & hardware support : Manuel Goepfert

Contact : metmap@orbifly.com




SOURCES & CREDITS :

   NOAA       Earth
Advisory